KDRM

Details ICAO KDRM (DRM)
Name DRUMMOND ISLAND
Region United States
Timezone America/Detroit (UTC-5.0)
Plans Departing 0
Arriving 1
Stats Elevation 668 ft / 204 m (AMSL)
Location 46.009525° -83.743392°
Runways 2
Magnetic Variation 7.883° W
Sunrise 2017-12-16 13:12:27 UTC / 2017-12-16 08:12:27 Local
Sunset 2017-12-16 21:51:45 UTC / 2017-12-16 16:51:45 Local
Advertisement - Login to hide

Runways

ID Width Length Bearing (true) Bearing (mag) Surface Threshold Offset Overrun Length
08 75 ft / 23 m 3,992 ft / 1,217 m 72.06° 79.94° Asphalt 650 ft / 198 m 0 ft / 0 m
18 150 ft / 46 m 2,559 ft / 780 m 172.09° 179.97° Grass 0 ft / 0 m 0 ft / 0 m
26 75 ft / 23 m 3,992 ft / 1,217 m 252.07° 259.95° Asphalt 170 ft / 52 m 0 ft / 0 m
36 150 ft / 46 m 2,559 ft / 780 m 352.09° 359.97° Grass 0 ft / 0 m 0 ft / 0 m

Map

Weather


0- 5 10 15 20 25 30 35+ Temperature / ° C

Clouds and Precipitation
Forecast for 2017-12-16 18:00 UTC. Updated 2 hours ago

Ground ~20,000 ft ~40,000 ft Winds

METAR

KDRM 161855Z AUTO 36003KT 10SM CLR M15/M20 A3010 RMK AO2 T11501202

TAF

Not found

Frequencies

Recorded 118.32 MHz AWOS 3
Unicom 122.80 MHz CTAF/UNICOM
Warning: Do not use this data for real-world aviation or navigation. No guarantee of current accuracy is given.